Cap FAP David Abenzur Rengifo International Airport
SPCL : now visible

Airfield :











YOU CAN JOIN US ON...

 
LOGIN :

Register | Disclaimer

   EN    FR    IT 

 









Legend :    VFR   Marginal VFR   IFR   Intensive IFR   Very Intensive IFR
Visi :
Ceiling :
>= 8 km
>= 3000ft
5 to 8 km
1000 to 3000 ft
1500m to 5 km
500 to 1000 ft
800 to 1500m
200 to 500 ft
< 800m
< 200 ft
Symbols :   Thunderstorms  Fog  Heavy snow  Heavy precipitations  Wind > 20 kt






- Airport Elevation : 513 ft
- IATA code : PCL


SPCL - Cap FAP David Abenzur Rengifo International

CURRENT METAR :
  • 210500Z 07003KT 9999 SCT015 28/24 Q1010 RMK PP000

EXPIRED METARs :
  • 210400Z 05004KT 9999 SCT015 28/24 Q1009 RMK PP000
  • 210300Z 03004KT 9999 SCT015 28/25 Q1009 RMK PP000

TAF SPCL
Valid from the 21 at 00:00 until the 22 at 00:00 UTC


202300Z 2100/2124 01004KT 9999 SCT020 TX33/2119Z TN23/2111Z
TEMPO 2108/2112 4000 BCFG BKN010 BKN080
TEMPO 2118/2122 BKN025 BKN080



MET'MAP, your aeronautical weather chart ! - Copyright ORBIFLY December 2007 - Disclaimer

ORBIFLY MET'MAP TEAM :

Programming & Development : Alexandra Zaïnal
Concept & original design : Baudouin d'Aumeries
Assistance for programming : Marc-Olivier Méhu
Technical & hardware support : Manuel Goepfert

Contact : metmap@orbifly.com




SOURCES & CREDITS :

   NOAA       Earth
Advisory